Time;durP1;ratioP1;P1;durP2;ratioP2;P2;SDS_P1;SDS_P2;PMS_P1;PMS_P2;Temp;Humidity;BMP_temperature;BMP_pressure;BME280_temperature;BME280_humidity;BME280_pressure;Samples;Min_cycle;Max_cycle;Signal;HPM_P1;HPM_P2
2022/10/12 00:02:12;;;;;;;21.33;13.32;;;;;;;10.54;100.00;99466.03;4485780;31;20097;-74
2022/10/12 00:04:39;;;;;;;25.23;14.70;;;;;;;10.59;100.00;99463.88;4486096;31;20429;-74
2022/10/12 00:07:06;;;;;;;26.37;15.38;;;;;;;10.59;100.00;99466.50;4485977;31;20135;-74
2022/10/12 00:09:34;;;;;;;25.83;14.32;;;;;;;10.65;100.00;99460.78;4485940;31;20573;-74
2022/10/12 00:12:01;;;;;;;24.08;14.32;;;;;;;10.71;100.00;99464.72;4485958;31;20469;-74
2022/10/12 00:14:28;;;;;;;26.58;14.77;;;;;;;10.73;100.00;99466.25;4485897;32;20159;-74
2022/10/12 00:16:55;;;;;;;28.25;15.57;;;;;;;10.76;100.00;99460.75;4485750;32;20156;-74
2022/10/12 00:19:22;;;;;;;25.83;15.35;;;;;;;10.77;100.00;99461.63;4485865;32;20157;-74
2022/10/12 00:21:49;;;;;;;24.73;14.18;;;;;;;10.75;100.00;99460.87;4485762;32;20429;-74
2022/10/12 00:24:16;;;;;;;26.52;16.12;;;;;;;10.77;100.00;99465.06;4485557;32;20092;-74
2022/10/12 00:26:44;;;;;;;27.77;16.17;;;;;;;10.85;100.00;99461.81;4485655;32;20148;-74
2022/10/12 00:29:11;;;;;;;26.85;14.32;;;;;;;10.91;100.00;99461.34;4485948;31;20088;-74
2022/10/12 00:31:38;;;;;;;29.23;14.43;;;;;;;10.87;100.00;99462.56;4485674;31;20608;-74
2022/10/12 00:34:05;;;;;;;26.80;14.27;;;;;;;10.89;100.00;99462.44;4485743;31;20118;-74
2022/10/12 00:36:34;;;;;;;25.80;13.52;;;;;;;10.90;100.00;99469.31;4485636;31;20112;-74
2022/10/12 00:39:04;;;;;;;25.62;14.70;;;;;;;10.94;100.00;99466.34;4485727;31;20486;-74
2022/10/12 00:41:38;;;;;;;22.37;13.82;;;;;;;10.92;100.00;99465.63;4485670;31;20116;-74
2022/10/12 00:44:34;;;;;;;22.25;13.05;;;;;;;10.87;100.00;99459.94;4485866;31;20478;-74
2022/10/12 00:47:23;;;;;;;20.67;12.50;;;;;;;10.83;100.00;99459.31;4485509;31;20191;-74
2022/10/12 00:50:14;;;;;;;23.70;12.98;;;;;;;10.81;100.00;99461.25;4485644;31;20137;-74
2022/10/12 00:52:49;;;;;;;25.08;13.73;;;;;;;10.79;100.00;99459.69;4485246;31;20156;-74
2022/10/12 00:55:18;;;;;;;19.77;12.68;;;;;;;10.78;100.00;99465.88;4484384;32;20183;-74
2022/10/12 00:57:47;;;;;;;22.58;13.80;;;;;;;10.77;100.00;99454.56;4484143;32;20083;-74
2022/10/12 01:00:15;;;;;;;23.40;13.38;;;;;;;10.73;100.00;99457.56;4484650;32;20122;-74
2022/10/12 01:02:42;;;;;;;29.15;14.05;;;;;;;10.73;100.00;99463.62;4484165;32;20167;-74
2022/10/12 01:05:11;;;;;;;23.17;12.52;;;;;;;10.72;100.00;99467.22;4485627;31;20217;-74
2022/10/12 01:07:38;;;;;;;25.70;12.68;;;;;;;10.71;100.00;99468.16;4485268;31;20096;-74
2022/10/12 01:10:06;;;;;;;19.42;13.25;;;;;;;10.72;100.00;99458.50;4485353;31;20133;-74
2022/10/12 01:12:33;;;;;;;26.33;13.43;;;;;;;10.73;100.00;99466.25;4485556;31;20438;-74
2022/10/12 01:15:01;;;;;;;22.77;13.38;;;;;;;10.73;100.00;99468.88;4485504;31;20122;-74
2022/10/12 01:18:18;;;;;;;24.15;13.07;;;;;;;10.79;100.00;99473.63;4484068;32;20160;-74
2022/10/12 01:21:01;;;;;;;23.15;13.43;;;;;;;10.78;100.00;99469.34;4436198;32;20167;-74
2022/10/12 01:23:46;;;;;;;23.45;13.23;;;;;;;10.79;100.00;99476.25;4436055;32;20483;-74
2022/10/12 01:26:28;;;;;;;24.50;14.10;;;;;;;10.79;100.00;99478.03;4436219;32;20154;-74
2022/10/12 01:29:13;;;;;;;25.60;12.70;;;;;;;10.77;100.00;99480.78;4436306;32;20193;-74
2022/10/12 01:32:00;;;;;;;23.27;13.50;;;;;;;10.79;100.00;99486.72;4436069;32;20125;-74
2022/10/12 01:34:44;;;;;;;25.80;14.00;;;;;;;10.88;100.00;99486.97;4423421;32;20708;-74
2022/10/12 01:37:16;;;;;;;28.55;14.75;;;;;;;10.90;100.00;99485.06;4436141;32;20218;-74
2022/10/12 01:39:53;;;;;;;27.33;14.18;;;;;;;10.88;100.00;99493.03;4436510;32;20139;-74
2022/10/12 01:42:26;;;;;;;27.52;14.38;;;;;;;10.90;100.00;99492.91;4436219;32;20456;-74
2022/10/12 01:45:04;;;;;;;29.60;14.13;;;;;;;10.91;100.00;99489.34;4436045;32;20493;-74
2022/10/12 01:47:32;;;;;;;25.33;13.95;;;;;;;10.89;100.00;99491.28;4436037;32;20595;-74
2022/10/12 01:50:00;;;;;;;22.17;14.23;;;;;;;10.87;100.00;99490.53;4435656;32;20123;-74
2022/10/12 01:52:29;;;;;;;25.33;14.95;;;;;;;10.91;100.00;99490.16;4435942;32;20120;-74
2022/10/12 01:55:05;;;;;;;21.83;13.50;;;;;;;10.96;100.00;99495.91;4436139;32;20102;-74
2022/10/12 01:58:09;;;;;;;27.17;13.57;;;;;;;10.98;100.00;99491.34;4465915;32;20084;-74
2022/10/12 02:00:40;;;;;;;;;;;;;;;11.03;100.00;99490.16;4485441;32;20110;-74
2022/10/12 02:03:13;;;;;;;26.10;13.25;;;;;;;11.06;100.00;99496.00;4485402;31;19979;-74
2022/10/12 02:05:48;;;;;;;30.40;14.07;;;;;;;11.13;100.00;99493.72;4485197;31;20160;-74
2022/10/12 02:08:14;;;;;;;;;;;;;;;11.18;100.00;99499.44;4484034;32;20126;-74
2022/10/12 02:10:51;;;;;;;26.30;13.18;;;;;;;11.23;100.00;99496.44;4485151;31;20376;-74
2022/10/12 02:13:20;;;;;;;24.87;13.77;;;;;;;11.26;100.00;99499.63;4485063;31;20179;-74
2022/10/12 02:15:48;;;;;;;23.33;13.55;;;;;;;11.29;100.00;99491.50;4483698;32;20169;-74
2022/10/12 02:18:17;;;;;;;25.05;13.65;;;;;;;11.32;100.00;99493.06;4484934;31;20122;-74
2022/10/12 02:20:50;;;;;;;29.17;14.32;;;;;;;11.30;100.00;99495.00;4483701;32;20736;-74
2022/10/12 02:23:18;;;;;;;24.45;14.87;;;;;;;11.27;100.00;99496.06;4484836;31;20879;-74
2022/10/12 02:25:45;;;;;;;25.85;14.75;;;;;;;11.24;100.00;99496.31;4484910;31;20097;-74
2022/10/12 02:28:16;;;;;;;25.08;13.98;;;;;;;11.21;100.00;99493.13;4483757;32;20490;-74
2022/10/12 02:31:09;;;;;;;27.00;14.32;;;;;;;11.16;100.00;99491.69;4483858;32;20528;-74
2022/10/12 02:33:50;;;;;;;27.62;14.77;;;;;;;11.15;100.00;99491.81;4483695;32;20172;-74
2022/10/12 02:36:24;;;;;;;31.37;14.90;;;;;;;11.13;100.00;99488.47;4483649;32;20199;-74
2022/10/12 02:39:02;;;;;;;;;;;;;;;11.09;100.00;99487.88;4484186;32;20191;-74
2022/10/12 02:41:37;;;;;;;31.77;15.02;;;;;;;11.11;100.00;99486.00;4485264;31;20045;-74
2022/10/12 02:44:07;;;;;;;30.30;14.38;;;;;;;11.17;100.00;99489.87;4484876;31;20080;-74
2022/10/12 02:46:35;;;;;;;35.10;15.40;;;;;;;11.20;100.00;99492.25;4483589;32;20135;-74
2022/10/12 02:49:03;;;;;;;25.02;15.00;;;;;;;11.23;100.00;99492.00;4484654;31;20084;-74
2022/10/12 02:51:31;;;;;;;33.47;14.80;;;;;;;11.27;100.00;99493.44;4483412;32;20540;-74
2022/10/12 02:53:59;;;;;;;26.55;14.40;;;;;;;11.33;100.00;99492.13;4483432;32;20147;-74
2022/10/12 02:56:26;;;;;;;25.48;14.45;;;;;;;11.26;100.00;99490.94;4483256;32;20263;-74
2022/10/12 02:58:53;;;;;;;25.45;14.05;;;;;;;11.24;100.00;99495.47;4484646;31;20164;-74
2022/10/12 03:01:20;;;;;;;25.98;14.23;;;;;;;11.23;100.00;99499.06;4484543;32;20212;-74
2022/10/12 03:03:47;;;;;;;29.15;15.00;;;;;;;11.18;100.00;99496.81;4486082;32;20549;-74
2022/10/12 03:06:14;;;;;;;25.83;14.85;;;;;;;11.22;100.00;99494.75;4486508;31;20100;-74
2022/10/12 03:08:41;;;;;;;26.42;14.87;;;;;;;11.17;100.00;99490.75;4486121;32;20479;-74
2022/10/12 03:11:11;;;;;;;29.67;14.75;;;;;;;11.09;100.00;99501.00;4486491;32;20096;-74
2022/10/12 03:13:38;;;;;;;28.62;14.85;;;;;;;11.02;100.00;99497.19;4486668;31;20115;-74
2022/10/12 03:16:10;;;;;;;28.05;15.82;;;;;;;11.01;100.00;99501.59;4486508;31;20089;-74
2022/10/12 03:18:37;;;;;;;29.87;16.58;;;;;;;10.99;100.00;99500.03;4486185;31;20131;-74
2022/10/12 03:21:04;;;;;;;29.52;15.30;;;;;;;11.01;100.00;99500.78;4486318;31;20093;-74
2022/10/12 03:23:32;;;;;;;30.95;14.87;;;;;;;11.01;100.00;99504.22;4486093;31;20160;-74
2022/10/12 03:25:59;;;;;;;30.33;15.07;;;;;;;11.03;100.00;99496.22;4486110;31;20116;-74
2022/10/12 03:28:26;;;;;;;28.80;14.52;;;;;;;11.09;100.00;99501.00;4486223;31;20084;-74
2022/10/12 03:30:53;;;;;;;28.70;15.75;;;;;;;11.12;100.00;99495.50;4486346;31;20113;-74
2022/10/12 03:33:20;;;;;;;30.20;15.63;;;;;;;11.14;100.00;99503.25;4486232;31;20119;-74
2022/10/12 03:35:48;;;;;;;28.90;15.35;;;;;;;11.16;100.00;99507.41;4486231;31;20551;-74
2022/10/12 03:38:16;;;;;;;26.48;15.45;;;;;;;11.18;100.00;99502.88;4486308;31;20152;-74
2022/10/12 03:40:43;;;;;;;29.95;16.12;;;;;;;11.19;100.00;99501.09;4486142;31;20168;-74
2022/10/12 03:43:10;;;;;;;27.42;14.57;;;;;;;11.11;100.00;99499.09;4484860;32;20100;-74
2022/10/12 03:45:38;;;;;;;29.63;13.85;;;;;;;11.04;100.00;99497.91;4486328;31;20093;-74
2022/10/12 03:48:06;;;;;;;28.55;15.02;;;;;;;11.05;100.00;99501.34;4486051;31;20118;-74
2022/10/12 03:50:36;;;;;;;28.67;15.68;;;;;;;11.10;100.00;99497.41;4485840;31;20548;-74
2022/10/12 03:53:05;;;;;;;31.45;15.00;;;;;;;11.12;100.00;99494.69;4486185;31;20111;-74
2022/10/12 03:55:32;;;;;;;30.98;16.17;;;;;;;11.09;100.00;99501.00;4485890;31;20180;-74
2022/10/12 03:57:59;;;;;;;29.50;16.12;;;;;;;11.06;100.00;99498.59;4486096;31;20127;-74
2022/10/12 04:00:27;;;;;;;28.17;15.82;;;;;;;11.06;100.00;99493.38;4486087;32;20100;-74
2022/10/12 04:02:54;;;;;;;32.67;16.10;;;;;;;11.05;100.00;99491.69;4485537;32;20533;-74
2022/10/12 04:05:21;;;;;;;27.92;15.43;;;;;;;11.12;100.00;99490.25;4486206;32;20161;-74
2022/10/12 04:07:49;;;;;;;31.42;16.37;;;;;;;11.16;100.00;99494.31;4486025;31;20099;-74
2022/10/12 04:10:16;;;;;;;29.80;15.70;;;;;;;11.21;100.00;99490.50;4485646;31;20121;-74
2022/10/12 04:12:44;;;;;;;31.33;15.93;;;;;;;11.20;100.00;99492.25;4485869;31;20080;-74
2022/10/12 04:15:12;;;;;;;28.38;15.55;;;;;;;11.25;100.00;99490.13;4485620;31;20134;-74
2022/10/12 04:17:39;;;;;;;36.28;15.40;;;;;;;11.25;100.00;99500.59;4485584;32;20088;-74
2022/10/12 04:20:09;;;;;;;33.15;16.17;;;;;;;11.33;100.00;99489.50;4485599;31;20476;-74
2022/10/12 04:22:37;;;;;;;33.90;17.60;;;;;;;11.23;100.00;99493.81;4485451;31;20135;-74
2022/10/12 04:25:05;;;;;;;31.90;16.58;;;;;;;11.34;100.00;99496.41;4485393;31;20206;-73
2022/10/12 04:27:32;;;;;;;26.10;14.98;;;;;;;11.32;100.00;99495.69;4484959;31;20096;-73
2022/10/12 04:29:59;;;;;;;29.37;15.52;;;;;;;11.33;100.00;99498.19;4485172;31;20088;-73
2022/10/12 04:32:26;;;;;;;26.12;15.45;;;;;;;11.32;100.00;99500.94;4484624;31;20495;-73
2022/10/12 04:34:53;;;;;;;30.67;16.20;;;;;;;11.26;100.00;99498.81;4484117;31;20119;-74
2022/10/12 04:37:20;;;;;;;28.52;16.92;;;;;;;11.25;100.00;99502.38;4483963;32;20126;-74
2022/10/12 04:39:47;;;;;;;31.60;16.83;;;;;;;11.22;100.00;99506.09;4485526;31;20134;-73
2022/10/12 04:42:14;;;;;;;30.98;15.95;;;;;;;11.21;100.00;99503.59;4485480;31;20093;-74
2022/10/12 04:44:41;;;;;;;32.40;16.37;;;;;;;11.23;100.00;99506.91;4485624;31;20123;-74
2022/10/12 04:47:08;;;;;;;29.83;16.70;;;;;;;11.18;100.00;99502.88;4483256;31;20148;-74
2022/10/12 04:49:35;;;;;;;29.50;15.52;;;;;;;11.13;100.00;99499.78;4476652;32;20136;-74
2022/10/12 04:52:03;;;;;;;26.55;15.77;;;;;;;11.14;100.00;99505.87;4472843;32;20116;-74
2022/10/12 04:54:31;;;;;;;29.90;15.85;;;;;;;11.21;100.00;99508.84;4485644;31;20127;-74
2022/10/12 04:56:58;;;;;;;35.00;16.10;;;;;;;11.13;100.00;99506.84;4475079;31;20157;-74
2022/10/12 04:59:26;;;;;;;34.55;16.73;;;;;;;11.04;100.00;99507.53;4470237;32;20957;-74
2022/10/12 05:01:53;;;;;;;39.30;16.45;;;;;;;10.98;100.00;99507.09;4482898;31;20100;-74
2022/10/12 05:04:20;;;;;;;28.38;16.83;;;;;;;10.91;100.00;99518.19;4473251;32;20109;-74
2022/10/12 05:06:47;;;;;;;31.17;16.27;;;;;;;10.92;100.00;99518.06;4472134;31;20100;-74
2022/10/12 05:09:15;;;;;;;35.13;17.40;;;;;;;10.92;100.00;99514.63;4482632;31;20128;-74
2022/10/12 05:11:43;;;;;;;36.42;16.67;;;;;;;10.90;100.00;99521.75;4470346;32;20119;-74
2022/10/12 05:14:10;;;;;;;32.90;16.95;;;;;;;10.79;100.00;99515.56;4474201;32;20522;-74
2022/10/12 05:16:37;;;;;;;38.33;17.20;;;;;;;10.80;100.00;99517.22;4480840;32;20398;-74
2022/10/12 05:19:04;;;;;;;32.60;16.58;;;;;;;10.79;100.00;99525.22;4479416;32;20164;-73
2022/10/12 05:21:32;;;;;;;28.87;15.60;;;;;;;10.85;100.00;99526.53;4475425;32;21330;-73
2022/10/12 05:23:59;;;;;;;29.23;15.82;;;;;;;10.89;100.00;99517.47;4471315;32;20115;-74
2022/10/12 05:26:27;;;;;;;31.30;16.17;;;;;;;10.93;100.00;99526.75;4473479;32;20206;-74
2022/10/12 05:28:54;;;;;;;34.58;15.20;;;;;;;10.96;100.00;99531.75;4473682;31;20096;-73
2022/10/12 05:31:21;;;;;;;27.42;14.57;;;;;;;11.11;100.00;99522.69;4479904;31;20482;-74
2022/10/12 05:33:48;;;;;;;36.03;15.27;;;;;;;11.22;100.00;99528.84;4478784;32;20551;-73
2022/10/12 05:36:15;;;;;;;28.90;14.30;;;;;;;11.39;100.00;99536.22;4480593;32;20104;-74
2022/10/12 05:38:43;;;;;;;30.35;15.70;;;;;;;11.52;100.00;99533.41;4480129;32;20477;-74
2022/10/12 05:41:10;;;;;;;33.25;15.55;;;;;;;11.63;100.00;99529.94;4483316;32;20149;-74
2022/10/12 05:43:37;;;;;;;28.10;14.32;;;;;;;11.76;100.00;99530.59;4480804;31;20097;-73
2022/10/12 05:46:04;;;;;;;32.72;14.75;;;;;;;11.81;100.00;99533.69;4470912;32;20467;-74
2022/10/12 05:48:32;;;;;;;34.67;13.95;;;;;;;11.96;100.00;99536.87;4473279;32;20509;-74
2022/10/12 05:50:59;;;;;;;29.67;13.68;;;;;;;12.06;100.00;99534.31;4476922;31;20481;-74
2022/10/12 05:53:26;;;;;;;40.20;13.68;;;;;;;12.34;100.00;99531.97;4467915;32;20499;-74
2022/10/12 05:55:58;;;;;;;32.53;14.18;;;;;;;12.44;100.00;99538.13;4470398;32;20160;-73
2022/10/12 05:58:26;;;;;;;29.63;13.00;;;;;;;12.55;100.00;99543.31;4469213;32;20122;-74
2022/10/12 06:00:54;;;;;;;22.62;13.77;;;;;;;12.68;100.00;99543.09;4480637;32;20141;-74
2022/10/12 06:03:22;;;;;;;48.42;14.32;;;;;;;12.82;100.00;99554.22;4478969;31;20213;-74
2022/10/12 06:05:52;;;;;;;26.65;12.90;;;;;;;12.78;100.00;99538.72;4479116;32;20088;-73
2022/10/12 06:08:19;;;;;;;26.42;13.20;;;;;;;12.96;100.00;99552.06;4467639;31;207397;-72
2022/10/12 06:10:49;;;;;;;22.58;12.70;;;;;;;12.99;100.00;99550.13;4472222;32;20158;-74
2022/10/12 06:13:18;;;;;;;26.77;12.40;;;;;;;12.90;100.00;99552.59;4478972;32;20615;-74
2022/10/12 06:15:46;;;;;;;20.25;12.40;;;;;;;13.00;100.00;99552.63;4475445;31;20119;-74
2022/10/12 06:18:14;;;;;;;20.70;12.65;;;;;;;13.07;100.00;99552.94;4478114;32;20128;-75
2022/10/12 06:20:53;;;;;;;25.50;12.85;;;;;;;13.18;100.00;99559.91;4475831;31;20093;-74
2022/10/12 06:23:40;;;;;;;29.15;13.07;;;;;;;13.28;100.00;99564.22;4477968;31;20148;-75
2022/10/12 06:26:07;;;;;;;22.00;12.70;;;;;;;13.30;100.00;99559.63;4474191;31;20122;-74
2022/10/12 06:28:34;;;;;;;33.15;12.48;;;;;;;13.38;100.00;99561.63;4477375;32;20118;-75
2022/10/12 06:31:01;;;;;;;21.37;11.85;;;;;;;13.17;100.00;99569.59;4474640;32;20542;-74
2022/10/12 06:33:29;;;;;;;39.28;12.73;;;;;;;13.28;100.00;99566.03;4476036;32;20225;-75
2022/10/12 06:35:56;;;;;;;29.55;12.73;;;;;;;13.30;100.00;99566.72;4474525;31;20117;-74
2022/10/12 06:38:23;;;;;;;22.52;11.93;;;;;;;13.38;100.00;99566.87;4473117;31;20108;-74
2022/10/12 06:40:52;;;;;;;19.37;12.02;;;;;;;13.47;100.00;99578.41;4469014;32;20491;-74
2022/10/12 06:43:21;;;;;;;28.70;11.48;;;;;;;13.51;100.00;99577.16;4468923;32;20081;-73
2022/10/12 06:45:49;;;;;;;20.10;11.52;;;;;;;13.59;100.00;99573.84;4474727;31;20209;-74
2022/10/12 06:48:16;;;;;;;22.87;10.70;;;;;;;13.57;100.00;99576.63;4470059;32;20104;-73
2022/10/12 06:50:45;;;;;;;23.08;11.88;;;;;;;13.58;100.00;99575.66;4470422;32;20179;-74
2022/10/12 06:53:12;;;;;;;26.33;10.75;;;;;;;13.51;100.00;99578.97;4480746;31;20108;-72
2022/10/12 06:55:39;;;;;;;25.00;11.57;;;;;;;13.66;100.00;99577.62;4473775;31;20551;-72
2022/10/12 06:58:06;;;;;;;20.02;10.55;;;;;;;13.76;100.00;99582.87;4481228;32;20118;-73
2022/10/12 07:00:34;;;;;;;23.62;10.98;;;;;;;13.74;100.00;99583.00;4479133;32;20418;-72
2022/10/12 07:03:01;;;;;;;25.77;11.73;;;;;;;13.74;100.00;99583.00;4475363;31;20153;-73
2022/10/12 07:05:29;;;;;;;19.98;11.38;;;;;;;13.81;100.00;99585.94;4474251;31;20152;-74
2022/10/12 07:07:56;;;;;;;18.00;10.75;;;;;;;13.87;100.00;99585.41;4476064;31;20481;-73
2022/10/12 07:10:24;;;;;;;22.33;11.75;;;;;;;13.77;96.69;99587.19;4474678;31;20093;-74
2022/10/12 07:12:51;;;;;;;16.80;10.43;;;;;;;13.76;97.45;99580.25;4474655;32;20093;-74
2022/10/12 07:15:18;;;;;;;25.08;10.57;;;;;;;13.66;99.90;99586.34;4465183;32;20092;-74
2022/10/12 07:17:45;;;;;;;21.50;10.57;;;;;;;13.71;97.11;99577.19;4467153;32;20558;-75
2022/10/12 07:20:12;;;;;;;19.70;10.55;;;;;;;13.73;97.00;99585.78;4465268;32;20084;-73
2022/10/12 07:22:40;;;;;;;18.25;9.88;;;;;;;13.77;99.07;99574.00;4469993;32;20309;-75
2022/10/12 07:25:08;;;;;;;15.63;10.23;;;;;;;13.92;98.32;99583.16;4483255;31;20153;-76
2022/10/12 07:27:35;;;;;;;18.65;10.70;;;;;;;14.01;98.02;99576.25;4475052;31;20104;-75
2022/10/12 07:30:03;;;;;;;20.00;10.07;;;;;;;13.92;97.11;99570.00;4476069;32;20180;-75
2022/10/12 07:32:30;;;;;;;16.48;9.95;;;;;;;14.00;96.88;99583.31;4473287;31;20093;-75
2022/10/12 07:34:57;;;;;;;20.17;10.18;;;;;;;14.02;96.84;99577.91;4478193;32;20100;-75
2022/10/12 07:37:24;;;;;;;17.40;9.10;;;;;;;14.00;95.36;99580.69;4471539;31;20406;-75
2022/10/12 07:39:55;;;;;;;19.70;9.55;;;;;;;14.01;93.50;99574.44;4466888;32;20798;-75
2022/10/12 07:42:24;;;;;;;17.23;9.60;;;;;;;13.95;93.96;99582.87;4468793;32;20100;-75
2022/10/12 07:44:51;;;;;;;16.70;9.05;;;;;;;14.08;92.64;99581.78;4479957;31;20088;-75
2022/10/12 07:47:18;;;;;;;16.65;9.65;;;;;;;14.24;93.32;99582.03;4478647;31;20594;-75
2022/10/12 07:49:45;;;;;;;23.35;9.80;;;;;;;14.45;91.78;99586.31;4483351;31;20466;-74
2022/10/12 07:52:12;;;;;;;15.93;9.27;;;;;;;14.50;93.03;99584.94;4471648;31;20117;-75
2022/10/12 07:54:40;;;;;;;21.60;9.77;;;;;;;14.59;91.26;99580.59;4469179;32;20721;-75
2022/10/12 07:57:07;;;;;;;21.30;10.70;;;;;;;14.61;89.64;99585.75;4482988;32;20100;-75
2022/10/12 07:59:34;;;;;;;14.65;9.40;;;;;;;14.80;89.71;99590.13;4467536;31;20491;-75
2022/10/12 08:02:02;;;;;;;24.67;11.20;;;;;;;14.77;87.81;99590.44;4471211;31;20478;-75
2022/10/12 08:04:29;;;;;;;19.55;10.55;;;;;;;14.70;87.78;99583.09;4482197;31;20107;-75
2022/10/12 08:06:59;;;;;;;14.48;9.55;;;;;;;14.75;87.24;99592.34;4473606;31;20131;-75
2022/10/12 08:09:26;;;;;;;19.30;10.38;;;;;;;14.67;88.40;99591.28;4476030;32;20117;-75
2022/10/12 08:11:54;;;;;;;14.70;9.13;;;;;;;14.74;88.29;99586.25;4476176;32;20124;-75
2022/10/12 08:14:22;;;;;;;14.18;8.93;;;;;;;14.73;87.41;99590.72;4479451;32;20117;-75
2022/10/12 08:16:49;;;;;;;13.45;8.85;;;;;;;14.74;86.07;99591.53;4471573;32;20171;-75
2022/10/12 08:19:16;;;;;;;41.67;10.85;;;;;;;14.71;87.04;99594.47;4474335;31;20140;-75
2022/10/12 08:21:43;;;;;;;14.18;8.95;;;;;;;14.69;89.24;99591.16;4468828;32;20478;-75
2022/10/12 08:24:10;;;;;;;17.05;10.80;;;;;;;14.84;88.23;99587.06;4478902;32;20592;-75
2022/10/12 08:26:38;;;;;;;21.40;10.43;;;;;;;14.89;88.44;99595.38;4480369;31;20580;-75
2022/10/12 08:29:07;;;;;;;19.75;10.70;;;;;;;15.00;86.18;99586.44;4473816;32;20153;-75
2022/10/12 08:31:34;;;;;;;21.02;10.77;;;;;;;15.17;86.74;99587.50;4471186;32;20109;-75
2022/10/12 08:34:02;;;;;;;15.18;10.38;;;;;;;15.37;87.89;99590.03;4481209;32;20233;-75
2022/10/12 08:36:29;;;;;;;22.80;10.30;;;;;;;15.49;86.70;99583.56;4469561;32;20178;-75
2022/10/12 08:38:57;;;;;;;26.05;9.68;;;;;;;15.44;84.81;99588.44;4468105;32;20150;-76
2022/10/12 08:41:47;;;;;;;16.80;10.73;;;;;;;15.54;86.37;99585.75;4475641;31;20139;-75
2022/10/12 08:44:47;;;;;;;20.73;10.68;;;;;;;15.89;84.92;99586.78;4476928;32;20443;-75
2022/10/12 12:08:39;;;;;;;12.57;6.18;;;;;;;20.11;66.83;99546.06;4507543;31;140811;-70
2022/10/12 12:11:22;;;;;;;13.85;6.68;;;;;;;20.11;66.83;99546.06;4453561;32;20139;-70
2022/10/12 12:13:49;;;;;;;12.10;6.32;;;;;;;19.16;66.61;99547.19;4432591;32;20359;-71
2022/10/12 12:16:17;;;;;;;14.57;6.72;;;;;;;19.50;70.16;99546.00;4432081;32;20691;-72
2022/10/12 12:19:12;;;;;;;11.63;6.15;;;;;;;19.73;68.54;99553.13;4442300;32;20136;-73
2022/10/12 12:22:28;;;;;;;12.00;6.80;;;;;;;19.53;62.90;99547.47;4443382;32;20111;-73
2022/10/12 12:25:02;;;;;;;;;;;;;;;19.28;62.88;99545.78;4411926;32;20101;-73
2022/10/12 12:27:50;;;;;;;15.77;6.28;;;;;;;19.24;63.62;99541.00;4411523;32;20015;-73
2022/10/12 12:30:17;;;;;;;19.05;6.40;;;;;;;19.13;63.46;99547.53;4412768;32;20102;-73
2022/10/12 12:32:50;;;;;;;23.58;6.07;;;;;;;19.04;64.40;99541.41;4413458;32;20788;-73
2022/10/12 12:35:25;;;;;;;14.00;6.60;;;;;;;18.88;64.02;99538.81;4411890;32;20119;-73
2022/10/12 12:38:10;;;;;;;12.20;6.45;;;;;;;18.95;64.07;99535.31;4411088;32;20530;-73
2022/10/12 12:40:41;;;;;;;9.90;6.50;;;;;;;19.14;65.31;99541.22;4413210;32;20105;-75
2022/10/12 12:43:35;;;;;;;12.77;6.07;;;;;;;18.80;64.91;99534.34;4413567;32;20210;-75
2022/10/12 12:46:04;;;;;;;14.18;7.05;;;;;;;18.93;65.74;99542.63;4406198;32;20106;-71
2022/10/12 12:48:40;;;;;;;11.00;6.32;;;;;;;18.88;66.37;99537.00;4440294;32;20950;-73
2022/10/12 12:51:12;;;;;;;12.88;6.70;;;;;;;19.04;66.30;99538.75;4459054;32;20097;-73
2022/10/12 12:53:45;;;;;;;15.38;6.57;;;;;;;19.13;63.39;99535.06;4460541;32;20136;-74
2022/10/12 12:56:33;;;;;;;17.27;6.55;;;;;;;19.14;62.94;99538.56;4450204;32;20093;-72
2022/10/12 12:59:45;;;;;;;11.50;5.93;;;;;;;18.95;65.94;99537.97;4478053;32;20283;-73
2022/10/12 13:02:22;;;;;;;12.93;6.22;;;;;;;19.03;67.03;99526.50;4481981;32;20108;-72
2022/10/12 13:05:20;;;;;;;11.00;6.30;;;;;;;19.22;67.36;99527.06;4499808;31;20142;-72
2022/10/12 13:08:18;;;;;;;8.98;6.32;;;;;;;19.12;63.25;99532.56;4498772;31;20166;-72
2022/10/12 13:11:14;;;;;;;16.30;6.55;;;;;;;19.00;66.08;99532.16;4500169;31;20765;-72
2022/10/12 13:14:15;;;;;;;15.75;6.93;;;;;;;19.10;64.32;99530.09;4479440;32;20161;-72
2022/10/12 13:16:58;;;;;;;13.23;6.80;;;;;;;18.70;67.10;99521.28;4481001;31;20130;-73
2022/10/12 13:19:45;;;;;;;16.23;5.82;;;;;;;18.49;67.95;99521.84;4488599;31;20121;-73
2022/10/12 13:22:18;;;;;;;47.40;7.57;;;;;;;18.50;68.16;99523.50;4486903;31;20589;-73
2022/10/12 13:24:49;;;;;;;13.90;7.12;;;;;;;18.52;65.73;99524.16;4486857;31;20161;-72
2022/10/12 13:27:20;;;;;;;13.48;7.32;;;;;;;18.59;66.84;99525.12;4490300;31;20532;-71
2022/10/12 13:29:57;;;;;;;14.00;5.78;;;;;;;18.65;63.56;99514.81;4483072;31;20088;-71
2022/10/12 13:32:43;;;;;;;9.77;6.28;;;;;;;18.67;64.22;99518.13;4484592;32;20127;-71
2022/10/12 13:35:16;;;;;;;13.90;5.72;;;;;;;18.54;67.08;99526.63;4485489;31;20513;-72
2022/10/12 13:37:43;;;;;;;22.70;6.75;;;;;;;18.48;65.74;99517.53;4481874;31;20188;-71
2022/10/12 13:40:53;;;;;;;22.27;6.35;;;;;;;18.54;64.85;99523.97;4474527;32;20114;-71
2022/10/12 13:43:32;;;;;;;35.45;8.63;;;;;;;18.56;66.06;99522.81;4436491;32;20489;-71
2022/10/12 13:45:59;;;;;;;21.67;7.75;;;;;;;18.42;65.73;99518.19;4437724;32;20562;-71
2022/10/12 13:48:27;;;;;;;23.90;6.60;;;;;;;18.49;65.23;99513.06;4439494;32;20149;-71
2022/10/12 13:51:22;;;;;;;16.98;6.82;;;;;;;18.70;65.09;99515.13;4438579;32;20502;-71
2022/10/12 13:53:49;;;;;;;13.98;7.62;;;;;;;18.77;64.42;99509.00;4449379;32;20692;-71
2022/10/12 13:56:19;;;;;;;15.13;6.20;;;;;;;18.91;64.23;99511.94;4448814;32;20177;-71
2022/10/12 13:58:46;;;;;;;18.67;6.25;;;;;;;18.84;65.95;99511.78;4428911;32;20136;-71
2022/10/12 14:01:13;;;;;;;11.25;6.10;;;;;;;18.78;65.28;99507.97;4436581;32;20459;-71
2022/10/12 14:03:43;;;;;;;114.28;11.90;;;;;;;18.95;65.36;99510.59;4445985;32;20152;-71
2022/10/12 14:06:28;;;;;;;12.63;6.85;;;;;;;18.90;64.34;99508.47;4443576;32;20102;-71
2022/10/12 14:08:57;;;;;;;23.10;6.80;;;;;;;19.10;62.40;99511.50;4435950;32;20144;-70
2022/10/12 14:11:25;;;;;;;16.12;6.97;;;;;;;19.17;64.64;99511.66;4437471;32;20487;-71
2022/10/12 14:13:52;;;;;;;11.45;6.28;;;;;;;19.13;65.92;99510.34;4435415;32;20671;-72
2022/10/12 14:16:20;;;;;;;25.17;6.70;;;;;;;19.24;63.91;99509.97;4440918;32;20128;-71
2022/10/12 14:18:47;;;;;;;11.10;6.18;;;;;;;19.14;64.97;99510.16;4469191;32;20101;-71
2022/10/12 14:21:28;;;;;;;14.63;5.68;;;;;;;18.78;64.56;99502.66;4469425;32;20119;-71
2022/10/12 14:24:08;;;;;;;13.25;6.62;;;;;;;18.26;65.61;99509.28;4469240;32;20118;-72
2022/10/12 14:26:40;;;;;;;17.20;8.40;;;;;;;18.22;66.83;99507.16;4475301;32;20092;-71
2022/10/12 14:29:34;;;;;;;20.12;7.18;;;;;;;18.07;68.17;99509.66;4483426;31;20122;-72
2022/10/12 14:32:11;;;;;;;22.17;7.50;;;;;;;17.97;68.66;99501.88;4483562;31;20100;-72
2022/10/12 14:34:45;;;;;;;13.65;6.35;;;;;;;17.84;68.40;99494.38;4483490;31;20080;-71
2022/10/12 14:37:12;;;;;;;14.45;6.35;;;;;;;17.69;68.26;99496.03;4483267;31;20111;-71
2022/10/12 14:39:40;;;;;;;16.75;6.15;;;;;;;17.75;68.26;99495.38;4483635;31;20537;-71
2022/10/12 14:42:33;;;;;;;27.23;6.18;;;;;;;17.77;68.09;99498.69;4484574;31;20112;-71
2022/10/12 14:45:03;;;;;;;14.73;5.93;;;;;;;17.84;70.83;99501.50;4485216;31;20111;-71
2022/10/12 14:47:32;;;;;;;17.15;6.32;;;;;;;17.83;70.01;99498.03;4476291;31;20092;-72
2022/10/12 14:50:06;;;;;;;13.50;5.62;;;;;;;17.59;72.06;99500.66;4484926;31;20085;-71
2022/10/12 14:52:54;;;;;;;18.73;6.80;;;;;;;17.40;71.60;99497.34;4484762;31;20124;-71
2022/10/12 14:55:26;;;;;;;18.37;6.55;;;;;;;17.43;72.71;99490.91;4472178;32;20586;-71
2022/10/12 14:57:54;;;;;;;16.60;6.72;;;;;;;17.43;73.11;99490.91;4479840;32;20626;-71
2022/10/12 15:00:39;;;;;;;16.87;6.03;;;;;;;17.37;72.94;99492.38;4482235;31;20092;-71